Riverside, Missouri
Current Conditions -  °F | °C
As of 11:54 AM on Saturday 22 Nov 2014 (Local Time) from KMKC Reporting Station
Overcast Overcast  
Wind Chill: 58°   Ceiling: 1100
Heat Index: 58°   Visibility: 7mi
Dew Point: 54°   Wind: 14mph
Humidity: 87%   Direction: 210°SSW
Pressure: 29.89"   Gusts: 23mph
Location:  39.18°N, 94.61°W
Report Text: KMKC 221754Z 21012G20KT 7SM OVC011 14/12 A2989 RMK AO2 SLP120 T01440122 10144 20111 58022
Loading
Personal Weather Stations






























Interactive Weather Map New forecast layout! Learn more

10-Day Weather Forecast

Advertisements
Track Severe Weather on mobile